sensor_id;sensor_type;location;lat;lon;timestamp;P1;durP1;ratioP1;P2;durP2;ratioP2
3875;SDS011;1953;51.222;6.624;2023-02-28T00:01:49;17.60;;;10.63;;
3875;SDS011;1953;51.222;6.624;2023-02-28T00:09:59;23.00;;;11.70;;
3875;SDS011;1953;51.222;6.624;2023-02-28T00:14:41;20.50;;;11.80;;
3875;SDS011;1953;51.222;6.624;2023-02-28T00:19:24;18.87;;;11.57;;
3875;SDS011;1953;51.222;6.624;2023-02-28T00:24:06;19.93;;;11.30;;
3875;SDS011;1953;51.222;6.624;2023-02-28T00:28:50;17.47;;;10.60;;
3875;SDS011;1953;51.222;6.624;2023-02-28T00:33:33;22.30;;;11.10;;
3875;SDS011;1953;51.222;6.624;2023-02-28T00:38:15;20.50;;;11.33;;
3875;SDS011;1953;51.222;6.624;2023-02-28T00:42:58;22.30;;;12.30;;
3875;SDS011;1953;51.222;6.624;2023-02-28T00:47:42;17.77;;;11.27;;
3875;SDS011;1953;51.222;6.624;2023-02-28T00:52:24;19.33;;;10.43;;
3875;SDS011;1953;51.222;6.624;2023-02-28T00:57:07;18.40;;;11.10;;
3875;SDS011;1953;51.222;6.624;2023-02-28T01:01:49;22.30;;;12.10;;
3875;SDS011;1953;51.222;6.624;2023-02-28T01:06:33;17.80;;;10.60;;
3875;SDS011;1953;51.222;6.624;2023-02-28T01:11:16;21.27;;;11.90;;
3875;SDS011;1953;51.222;6.624;2023-02-28T01:15:59;20.83;;;11.83;;
3875;SDS011;1953;51.222;6.624;2023-02-28T01:20:41;19.70;;;11.17;;
3875;SDS011;1953;51.222;6.624;2023-02-28T01:25:26;20.00;;;12.10;;
3875;SDS011;1953;51.222;6.624;2023-02-28T01:30:09;19.20;;;10.90;;
3875;SDS011;1953;51.222;6.624;2023-02-28T01:34:52;22.20;;;12.30;;
3875;SDS011;1953;51.222;6.624;2023-02-28T01:39:35;15.90;;;10.40;;
3875;SDS011;1953;51.222;6.624;2023-02-28T01:50:00;19.73;;;11.50;;
3875;SDS011;1953;51.222;6.624;2023-02-28T01:54:47;19.10;;;11.30;;
3875;SDS011;1953;51.222;6.624;2023-02-28T01:59:34;21.83;;;11.40;;
3875;SDS011;1953;51.222;6.624;2023-02-28T02:04:22;17.73;;;9.90;;
3875;SDS011;1953;51.222;6.624;2023-02-28T02:09:07;19.53;;;10.50;;
3875;SDS011;1953;51.222;6.624;2023-02-28T02:13:57;20.83;;;11.10;;
3875;SDS011;1953;51.222;6.624;2023-02-28T02:19:00;20.87;;;11.30;;
3875;SDS011;1953;51.222;6.624;2023-02-28T02:29:27;19.73;;;10.93;;
3875;SDS011;1953;51.222;6.624;2023-02-28T02:34:28;17.17;;;10.03;;
3875;SDS011;1953;51.222;6.624;2023-02-28T02:39:21;19.70;;;12.33;;
3875;SDS011;1953;51.222;6.624;2023-02-28T02:44:10;21.50;;;10.10;;
3875;SDS011;1953;51.222;6.624;2023-02-28T02:48:57;17.37;;;10.13;;
3875;SDS011;1953;51.222;6.624;2023-02-28T02:53:44;17.77;;;10.70;;
3875;SDS011;1953;51.222;6.624;2023-02-28T02:58:31;17.87;;;10.80;;
3875;SDS011;1953;51.222;6.624;2023-02-28T03:03:17;17.77;;;10.20;;
3875;SDS011;1953;51.222;6.624;2023-02-28T03:08:09;20.23;;;10.47;;
3875;SDS011;1953;51.222;6.624;2023-02-28T03:12:56;13.33;;;8.87;;
3875;SDS011;1953;51.222;6.624;2023-02-28T03:18:03;14.17;;;9.57;;
3875;SDS011;1953;51.222;6.624;2023-02-28T03:22:55;16.87;;;9.50;;
3875;SDS011;1953;51.222;6.624;2023-02-28T03:27:45;12.33;;;8.03;;
3875;SDS011;1953;51.222;6.624;2023-02-28T03:32:38;13.93;;;9.17;;
3875;SDS011;1953;51.222;6.624;2023-02-28T03:37:24;15.70;;;9.47;;
3875;SDS011;1953;51.222;6.624;2023-02-28T03:42:11;13.10;;;8.90;;
3875;SDS011;1953;51.222;6.624;2023-02-28T03:46:58;14.97;;;8.57;;
3875;SDS011;1953;51.222;6.624;2023-02-28T03:51:47;12.60;;;8.00;;
3875;SDS011;1953;51.222;6.624;2023-02-28T03:56:33;11.70;;;8.00;;
3875;SDS011;1953;51.222;6.624;2023-02-28T04:01:20;16.73;;;9.10;;
3875;SDS011;1953;51.222;6.624;2023-02-28T04:06:06;14.77;;;8.77;;
3875;SDS011;1953;51.222;6.624;2023-02-28T04:10:53;12.30;;;7.47;;
3875;SDS011;1953;51.222;6.624;2023-02-28T04:15:42;17.03;;;8.50;;
3875;SDS011;1953;51.222;6.624;2023-02-28T04:20:25;15.00;;;7.60;;
3875;SDS011;1953;51.222;6.624;2023-02-28T04:25:07;15.73;;;6.83;;
3875;SDS011;1953;51.222;6.624;2023-02-28T04:29:51;12.80;;;7.40;;
3875;SDS011;1953;51.222;6.624;2023-02-28T04:34:33;13.73;;;8.03;;
3875;SDS011;1953;51.222;6.624;2023-02-28T04:39:16;12.57;;;7.50;;
3875;SDS011;1953;51.222;6.624;2023-02-28T04:43:59;9.90;;;7.10;;
3875;SDS011;1953;51.222;6.624;2023-02-28T04:48:43;10.57;;;7.30;;
3875;SDS011;1953;51.222;6.624;2023-02-28T04:53:26;11.07;;;7.50;;
3875;SDS011;1953;51.222;6.624;2023-02-28T04:58:09;13.60;;;7.00;;
3875;SDS011;1953;51.222;6.624;2023-02-28T05:02:52;13.87;;;7.43;;
3875;SDS011;1953;51.222;6.624;2023-02-28T05:07:36;11.67;;;7.80;;
3875;SDS011;1953;51.222;6.624;2023-02-28T05:12:18;13.50;;;7.37;;
3875;SDS011;1953;51.222;6.624;2023-02-28T05:17:01;14.20;;;7.83;;
3875;SDS011;1953;51.222;6.624;2023-02-28T05:21:48;12.00;;;7.50;;
3875;SDS011;1953;51.222;6.624;2023-02-28T05:26:35;12.37;;;7.50;;
3875;SDS011;1953;51.222;6.624;2023-02-28T05:31:18;15.33;;;8.07;;
3875;SDS011;1953;51.222;6.624;2023-02-28T05:36:01;10.77;;;8.13;;
3875;SDS011;1953;51.222;6.624;2023-02-28T05:40:43;13.27;;;7.13;;
3875;SDS011;1953;51.222;6.624;2023-02-28T05:45:27;14.57;;;7.53;;
3875;SDS011;1953;51.222;6.624;2023-02-28T05:50:10;13.63;;;8.17;;
3875;SDS011;1953;51.222;6.624;2023-02-28T05:54:52;13.73;;;7.00;;
3875;SDS011;1953;51.222;6.624;2023-02-28T05:59:35;12.30;;;6.90;;
3875;SDS011;1953;51.222;6.624;2023-02-28T06:04:21;12.27;;;8.20;;
3875;SDS011;1953;51.222;6.624;2023-02-28T06:09:04;15.27;;;8.30;;
3875;SDS011;1953;51.222;6.624;2023-02-28T06:13:47;10.73;;;8.07;;
3875;SDS011;1953;51.222;6.624;2023-02-28T06:18:29;12.20;;;8.00;;
3875;SDS011;1953;51.222;6.624;2023-02-28T06:23:13;10.40;;;7.40;;
3875;SDS011;1953;51.222;6.624;2023-02-28T06:27:56;13.00;;;7.33;;
3875;SDS011;1953;51.222;6.624;2023-02-28T06:32:38;14.80;;;7.77;;
3875;SDS011;1953;51.222;6.624;2023-02-28T06:37:20;15.93;;;8.30;;
3875;SDS011;1953;51.222;6.624;2023-02-28T06:42:08;12.33;;;8.33;;
3875;SDS011;1953;51.222;6.624;2023-02-28T06:46:50;12.63;;;8.00;;
3875;SDS011;1953;51.222;6.624;2023-02-28T06:51:33;11.90;;;7.90;;
3875;SDS011;1953;51.222;6.624;2023-02-28T06:56:16;11.73;;;7.63;;
3875;SDS011;1953;51.222;6.624;2023-02-28T07:01:00;10.37;;;6.90;;
3875;SDS011;1953;51.222;6.624;2023-02-28T07:05:43;11.93;;;7.60;;
3875;SDS011;1953;51.222;6.624;2023-02-28T07:10:25;13.40;;;8.10;;
3875;SDS011;1953;51.222;6.624;2023-02-28T07:15:08;11.40;;;7.07;;
3875;SDS011;1953;51.222;6.624;2023-02-28T07:19:53;15.27;;;8.40;;
3875;SDS011;1953;51.222;6.624;2023-02-28T07:24:35;13.83;;;8.50;;
3875;SDS011;1953;51.222;6.624;2023-02-28T07:29:18;13.90;;;8.53;;
3875;SDS011;1953;51.222;6.624;2023-02-28T07:34:01;14.70;;;8.03;;
3875;SDS011;1953;51.222;6.624;2023-02-28T07:38:45;14.00;;;8.80;;
3875;SDS011;1953;51.222;6.624;2023-02-28T07:43:30;14.53;;;8.77;;
3875;SDS011;1953;51.222;6.624;2023-02-28T07:48:13;19.73;;;8.70;;
3875;SDS011;1953;51.222;6.624;2023-02-28T07:52:55;11.63;;;7.80;;
3875;SDS011;1953;51.222;6.624;2023-02-28T07:57:40;13.30;;;8.47;;
3875;SDS011;1953;51.222;6.624;2023-02-28T08:02:22;15.03;;;9.10;;
3875;SDS011;1953;51.222;6.624;2023-02-28T08:07:05;11.17;;;7.90;;
3875;SDS011;1953;51.222;6.624;2023-02-28T08:11:47;14.40;;;8.50;;
3875;SDS011;1953;51.222;6.624;2023-02-28T08:16:31;9.13;;;7.30;;
3875;SDS011;1953;51.222;6.624;2023-02-28T08:21:13;13.90;;;6.90;;
3875;SDS011;1953;51.222;6.624;2023-02-28T08:25:56;12.90;;;7.47;;
3875;SDS011;1953;51.222;6.624;2023-02-28T08:30:38;10.80;;;6.70;;
3875;SDS011;1953;51.222;6.624;2023-02-28T08:35:23;10.20;;;6.27;;
3875;SDS011;1953;51.222;6.624;2023-02-28T08:40:06;8.57;;;6.50;;
3875;SDS011;1953;51.222;6.624;2023-02-28T08:44:49;8.27;;;6.00;;
3875;SDS011;1953;51.222;6.624;2023-02-28T08:49:31;9.20;;;5.33;;
3875;SDS011;1953;51.222;6.624;2023-02-28T08:54:15;7.57;;;5.80;;
3875;SDS011;1953;51.222;6.624;2023-02-28T08:59:00;12.20;;;5.50;;
3875;SDS011;1953;51.222;6.624;2023-02-28T09:03:42;9.40;;;5.40;;
3875;SDS011;1953;51.222;6.624;2023-02-28T09:08:26;4.97;;;4.03;;
3875;SDS011;1953;51.222;6.624;2023-02-28T09:13:12;7.47;;;4.67;;
3875;SDS011;1953;51.222;6.624;2023-02-28T09:17:54;4.33;;;3.93;;
3875;SDS011;1953;51.222;6.624;2023-02-28T09:22:37;6.70;;;4.90;;
3875;SDS011;1953;51.222;6.624;2023-02-28T09:27:19;6.00;;;4.80;;
3875;SDS011;1953;51.222;6.624;2023-02-28T09:32:03;5.17;;;4.10;;
3875;SDS011;1953;51.222;6.624;2023-02-28T09:36:46;4.67;;;4.17;;
3875;SDS011;1953;51.222;6.624;2023-02-28T09:41:31;6.47;;;4.70;;
3875;SDS011;1953;51.222;6.624;2023-02-28T09:46:25;6.90;;;4.73;;
3875;SDS011;1953;51.222;6.624;2023-02-28T09:51:14;5.60;;;4.80;;
3875;SDS011;1953;51.222;6.624;2023-02-28T09:56:07;5.27;;;4.77;;
3875;SDS011;1953;51.222;6.624;2023-02-28T10:00:56;6.43;;;4.20;;
3875;SDS011;1953;51.222;6.624;2023-02-28T10:05:48;5.47;;;4.53;;
3875;SDS011;1953;51.222;6.624;2023-02-28T10:10:37;4.50;;;4.10;;
3875;SDS011;1953;51.222;6.624;2023-02-28T10:15:23;5.77;;;5.10;;
3875;SDS011;1953;51.222;6.624;2023-02-28T10:20:09;5.03;;;4.40;;
3875;SDS011;1953;51.222;6.624;2023-02-28T10:24:55;6.47;;;5.40;;
3875;SDS011;1953;51.222;6.624;2023-02-28T10:29:45;6.20;;;4.30;;
3875;SDS011;1953;51.222;6.624;2023-02-28T10:34:29;6.57;;;4.80;;
3875;SDS011;1953;51.222;6.624;2023-02-28T10:44:18;7.83;;;5.00;;
3875;SDS011;1953;51.222;6.624;2023-02-28T10:49:04;7.77;;;5.50;;
3875;SDS011;1953;51.222;6.624;2023-02-28T10:53:54;6.30;;;5.40;;
3875;SDS011;1953;51.222;6.624;2023-02-28T10:58:44;6.53;;;4.60;;
3875;SDS011;1953;51.222;6.624;2023-02-28T11:03:31;5.60;;;4.90;;
3875;SDS011;1953;51.222;6.624;2023-02-28T11:08:17;7.03;;;4.93;;
3875;SDS011;1953;51.222;6.624;2023-02-28T11:13:00;5.57;;;4.97;;
3875;SDS011;1953;51.222;6.624;2023-02-28T11:17:44;6.30;;;4.90;;
3875;SDS011;1953;51.222;6.624;2023-02-28T11:22:36;4.90;;;4.40;;
3875;SDS011;1953;51.222;6.624;2023-02-28T11:27:45;10.70;;;3.73;;
3875;SDS011;1953;51.222;6.624;2023-02-28T11:32:30;5.53;;;4.20;;
3875;SDS011;1953;51.222;6.624;2023-02-28T11:37:13;7.20;;;4.17;;
3875;SDS011;1953;51.222;6.624;2023-02-28T11:42:02;10.67;;;4.47;;
3875;SDS011;1953;51.222;6.624;2023-02-28T11:47:00;8.73;;;4.33;;
3875;SDS011;1953;51.222;6.624;2023-02-28T11:51:50;4.67;;;4.20;;
3875;SDS011;1953;51.222;6.624;2023-02-28T11:56:39;5.27;;;4.70;;
3875;SDS011;1953;51.222;6.624;2023-02-28T12:01:28;5.40;;;4.90;;
3875;SDS011;1953;51.222;6.624;2023-02-28T12:11:02;4.50;;;3.97;;
3875;SDS011;1953;51.222;6.624;2023-02-28T12:16:13;5.63;;;4.23;;
3875;SDS011;1953;51.222;6.624;2023-02-28T12:21:11;5.43;;;4.10;;
3875;SDS011;1953;51.222;6.624;2023-02-28T12:26:02;8.43;;;3.93;;
3875;SDS011;1953;51.222;6.624;2023-02-28T12:30:52;6.40;;;4.27;;
3875;SDS011;1953;51.222;6.624;2023-02-28T12:35:41;5.80;;;4.40;;
3875;SDS011;1953;51.222;6.624;2023-02-28T12:40:32;6.40;;;4.60;;
3875;SDS011;1953;51.222;6.624;2023-02-28T12:45:25;8.43;;;4.90;;
3875;SDS011;1953;51.222;6.624;2023-02-28T12:50:13;9.60;;;5.50;;
3875;SDS011;1953;51.222;6.624;2023-02-28T12:54:59;9.87;;;4.80;;
3875;SDS011;1953;51.222;6.624;2023-02-28T12:59:45;9.23;;;5.20;;
3875;SDS011;1953;51.222;6.624;2023-02-28T13:04:36;7.03;;;5.23;;
3875;SDS011;1953;51.222;6.624;2023-02-28T13:09:38;8.83;;;5.47;;
3875;SDS011;1953;51.222;6.624;2023-02-28T13:14:23;8.73;;;4.70;;
3875;SDS011;1953;51.222;6.624;2023-02-28T13:19:08;9.40;;;4.57;;
3875;SDS011;1953;51.222;6.624;2023-02-28T13:23:58;6.50;;;5.07;;
3875;SDS011;1953;51.222;6.624;2023-02-28T13:28:57;5.87;;;5.07;;
3875;SDS011;1953;51.222;6.624;2023-02-28T13:38:55;6.37;;;5.13;;
3875;SDS011;1953;51.222;6.624;2023-02-28T13:44:02;6.57;;;4.43;;
3875;SDS011;1953;51.222;6.624;2023-02-28T13:48:46;6.03;;;5.00;;
3875;SDS011;1953;51.222;6.624;2023-02-28T13:58:40;6.23;;;4.80;;
3875;SDS011;1953;51.222;6.624;2023-02-28T14:03:32;10.57;;;5.43;;
3875;SDS011;1953;51.222;6.624;2023-02-28T14:08:23;6.33;;;4.70;;
3875;SDS011;1953;51.222;6.624;2023-02-28T14:13:13;6.20;;;5.60;;
3875;SDS011;1953;51.222;6.624;2023-02-28T14:18:14;7.87;;;4.73;;
3875;SDS011;1953;51.222;6.624;2023-02-28T14:23:15;5.13;;;4.57;;
3875;SDS011;1953;51.222;6.624;2023-02-28T14:28:08;7.63;;;5.03;;
3875;SDS011;1953;51.222;6.624;2023-02-28T14:33:04;6.10;;;5.00;;
3875;SDS011;1953;51.222;6.624;2023-02-28T14:37:58;8.50;;;4.83;;
3875;SDS011;1953;51.222;6.624;2023-02-28T14:42:46;6.33;;;5.13;;
3875;SDS011;1953;51.222;6.624;2023-02-28T14:47:30;7.90;;;5.13;;
3875;SDS011;1953;51.222;6.624;2023-02-28T14:52:14;6.20;;;5.40;;
3875;SDS011;1953;51.222;6.624;2023-02-28T14:57:00;5.90;;;5.30;;
3875;SDS011;1953;51.222;6.624;2023-02-28T15:01:44;6.13;;;5.53;;
3875;SDS011;1953;51.222;6.624;2023-02-28T15:06:27;7.60;;;5.30;;
3875;SDS011;1953;51.222;6.624;2023-02-28T15:11:12;6.37;;;5.40;;
3875;SDS011;1953;51.222;6.624;2023-02-28T15:15:57;9.70;;;5.40;;
3875;SDS011;1953;51.222;6.624;2023-02-28T15:20:44;6.50;;;5.70;;
3875;SDS011;1953;51.222;6.624;2023-02-28T15:25:27;6.57;;;5.80;;
3875;SDS011;1953;51.222;6.624;2023-02-28T15:30:13;7.60;;;5.73;;
3875;SDS011;1953;51.222;6.624;2023-02-28T15:34:58;11.03;;;5.77;;
3875;SDS011;1953;51.222;6.624;2023-02-28T15:40:05;6.43;;;5.33;;
3875;SDS011;1953;51.222;6.624;2023-02-28T15:44:55;6.10;;;5.50;;
3875;SDS011;1953;51.222;6.624;2023-02-28T15:49:39;6.23;;;5.40;;
3875;SDS011;1953;51.222;6.624;2023-02-28T15:54:28;5.90;;;5.27;;
3875;SDS011;1953;51.222;6.624;2023-02-28T15:59:15;6.90;;;6.20;;
3875;SDS011;1953;51.222;6.624;2023-02-28T16:04:02;5.83;;;5.23;;
3875;SDS011;1953;51.222;6.624;2023-02-28T16:08:46;8.73;;;5.90;;
3875;SDS011;1953;51.222;6.624;2023-02-28T16:13:29;9.23;;;6.50;;
3875;SDS011;1953;51.222;6.624;2023-02-28T16:18:13;8.63;;;6.50;;
3875;SDS011;1953;51.222;6.624;2023-02-28T16:22:55;9.80;;;6.60;;
3875;SDS011;1953;51.222;6.624;2023-02-28T16:27:42;9.40;;;6.70;;
3875;SDS011;1953;51.222;6.624;2023-02-28T16:32:26;9.60;;;7.67;;
3875;SDS011;1953;51.222;6.624;2023-02-28T16:37:11;9.07;;;7.80;;
3875;SDS011;1953;51.222;6.624;2023-02-28T16:41:55;8.87;;;7.30;;
3875;SDS011;1953;51.222;6.624;2023-02-28T16:46:37;8.50;;;7.30;;
3875;SDS011;1953;51.222;6.624;2023-02-28T16:51:19;9.17;;;7.80;;
3875;SDS011;1953;51.222;6.624;2023-02-28T16:56:03;11.13;;;8.07;;
3875;SDS011;1953;51.222;6.624;2023-02-28T17:00:47;12.50;;;8.60;;
3875;SDS011;1953;51.222;6.624;2023-02-28T17:05:31;12.43;;;8.40;;
3875;SDS011;1953;51.222;6.624;2023-02-28T17:10:19;13.23;;;7.60;;
3875;SDS011;1953;51.222;6.624;2023-02-28T17:15:05;9.30;;;7.43;;
3875;SDS011;1953;51.222;6.624;2023-02-28T17:19:48;10.80;;;7.50;;
3875;SDS011;1953;51.222;6.624;2023-02-28T17:24:31;8.70;;;7.63;;
3875;SDS011;1953;51.222;6.624;2023-02-28T17:29:14;10.93;;;8.20;;
3875;SDS011;1953;51.222;6.624;2023-02-28T17:33:59;10.10;;;7.70;;
3875;SDS011;1953;51.222;6.624;2023-02-28T17:38:42;11.10;;;8.47;;
3875;SDS011;1953;51.222;6.624;2023-02-28T17:43:25;10.20;;;8.07;;
3875;SDS011;1953;51.222;6.624;2023-02-28T17:48:09;11.60;;;8.97;;
3875;SDS011;1953;51.222;6.624;2023-02-28T17:52:54;13.73;;;8.90;;
3875;SDS011;1953;51.222;6.624;2023-02-28T17:57:37;18.07;;;9.90;;
3875;SDS011;1953;51.222;6.624;2023-02-28T18:02:19;15.03;;;10.30;;
3875;SDS011;1953;51.222;6.624;2023-02-28T18:07:02;17.27;;;10.80;;
3875;SDS011;1953;51.222;6.624;2023-02-28T18:11:46;12.33;;;9.70;;
3875;SDS011;1953;51.222;6.624;2023-02-28T18:16:29;19.40;;;11.73;;
3875;SDS011;1953;51.222;6.624;2023-02-28T18:21:12;14.80;;;10.80;;
3875;SDS011;1953;51.222;6.624;2023-02-28T18:25:55;12.40;;;9.80;;
3875;SDS011;1953;51.222;6.624;2023-02-28T18:30:39;13.83;;;9.57;;
3875;SDS011;1953;51.222;6.624;2023-02-28T18:35:22;15.80;;;10.03;;
3875;SDS011;1953;51.222;6.624;2023-02-28T18:40:15;17.70;;;12.20;;
3875;SDS011;1953;51.222;6.624;2023-02-28T18:44:57;22.20;;;13.10;;
3875;SDS011;1953;51.222;6.624;2023-02-28T18:49:41;15.97;;;11.20;;
3875;SDS011;1953;51.222;6.624;2023-02-28T18:54:24;15.90;;;11.13;;
3875;SDS011;1953;51.222;6.624;2023-02-28T18:59:07;13.53;;;10.27;;
3875;SDS011;1953;51.222;6.624;2023-02-28T19:03:50;15.57;;;11.27;;
3875;SDS011;1953;51.222;6.624;2023-02-28T19:08:34;17.73;;;11.20;;
3875;SDS011;1953;51.222;6.624;2023-02-28T19:13:17;16.20;;;10.23;;
3875;SDS011;1953;51.222;6.624;2023-02-28T19:18:01;14.97;;;10.63;;
3875;SDS011;1953;51.222;6.624;2023-02-28T19:22:43;21.17;;;13.70;;
3875;SDS011;1953;51.222;6.624;2023-02-28T19:27:27;21.50;;;14.50;;
3875;SDS011;1953;51.222;6.624;2023-02-28T19:32:10;16.47;;;11.50;;
3875;SDS011;1953;51.222;6.624;2023-02-28T19:36:52;17.13;;;10.80;;
3875;SDS011;1953;51.222;6.624;2023-02-28T19:41:34;18.93;;;11.07;;
3875;SDS011;1953;51.222;6.624;2023-02-28T19:46:18;17.50;;;11.80;;
3875;SDS011;1953;51.222;6.624;2023-02-28T19:51:01;24.20;;;15.40;;
3875;SDS011;1953;51.222;6.624;2023-02-28T19:55:45;17.20;;;11.63;;
3875;SDS011;1953;51.222;6.624;2023-02-28T20:00:28;17.93;;;11.30;;
3875;SDS011;1953;51.222;6.624;2023-02-28T20:05:12;18.20;;;12.00;;
3875;SDS011;1953;51.222;6.624;2023-02-28T20:09:54;20.03;;;12.53;;
3875;SDS011;1953;51.222;6.624;2023-02-28T20:14:37;20.97;;;12.57;;
3875;SDS011;1953;51.222;6.624;2023-02-28T20:19:19;21.03;;;12.73;;
3875;SDS011;1953;51.222;6.624;2023-02-28T20:24:03;20.73;;;12.27;;
3875;SDS011;1953;51.222;6.624;2023-02-28T20:28:46;20.30;;;13.10;;
3875;SDS011;1953;51.222;6.624;2023-02-28T20:33:29;22.10;;;13.90;;
3875;SDS011;1953;51.222;6.624;2023-02-28T20:38:11;19.23;;;13.40;;
3875;SDS011;1953;51.222;6.624;2023-02-28T20:42:55;27.23;;;14.80;;
3875;SDS011;1953;51.222;6.624;2023-02-28T20:47:37;19.10;;;13.30;;
3875;SDS011;1953;51.222;6.624;2023-02-28T20:52:21;19.23;;;12.60;;
3875;SDS011;1953;51.222;6.624;2023-02-28T20:57:04;18.73;;;12.80;;
3875;SDS011;1953;51.222;6.624;2023-02-28T21:01:47;16.57;;;11.33;;
3875;SDS011;1953;51.222;6.624;2023-02-28T21:06:30;18.87;;;11.13;;
3875;SDS011;1953;51.222;6.624;2023-02-28T21:11:16;22.20;;;13.83;;
3875;SDS011;1953;51.222;6.624;2023-02-28T21:16:01;21.60;;;11.60;;
3875;SDS011;1953;51.222;6.624;2023-02-28T21:20:46;15.13;;;10.50;;
3875;SDS011;1953;51.222;6.624;2023-02-28T21:25:28;15.30;;;10.90;;
3875;SDS011;1953;51.222;6.624;2023-02-28T21:30:11;17.20;;;10.90;;
3875;SDS011;1953;51.222;6.624;2023-02-28T21:34:54;18.13;;;10.57;;
3875;SDS011;1953;51.222;6.624;2023-02-28T21:39:37;23.63;;;12.47;;
3875;SDS011;1953;51.222;6.624;2023-02-28T21:44:20;23.50;;;11.97;;
3875;SDS011;1953;51.222;6.624;2023-02-28T21:49:02;21.93;;;12.53;;
3875;SDS011;1953;51.222;6.624;2023-02-28T21:53:45;19.90;;;12.50;;
3875;SDS011;1953;51.222;6.624;2023-02-28T21:58:29;20.43;;;13.17;;
3875;SDS011;1953;51.222;6.624;2023-02-28T22:03:11;22.73;;;13.20;;
3875;SDS011;1953;51.222;6.624;2023-02-28T22:07:54;23.47;;;13.57;;
3875;SDS011;1953;51.222;6.624;2023-02-28T22:12:37;23.40;;;13.20;;
3875;SDS011;1953;51.222;6.624;2023-02-28T22:17:20;21.70;;;13.07;;
3875;SDS011;1953;51.222;6.624;2023-02-28T22:22:03;31.63;;;14.27;;
3875;SDS011;1953;51.222;6.624;2023-02-28T22:26:45;19.80;;;12.90;;
3875;SDS011;1953;51.222;6.624;2023-02-28T22:31:30;24.23;;;13.47;;
3875;SDS011;1953;51.222;6.624;2023-02-28T22:36:15;25.67;;;13.80;;
3875;SDS011;1953;51.222;6.624;2023-02-28T22:40:59;23.70;;;12.73;;
3875;SDS011;1953;51.222;6.624;2023-02-28T22:45:41;28.53;;;13.50;;
3875;SDS011;1953;51.222;6.624;2023-02-28T22:50:23;30.70;;;13.40;;
3875;SDS011;1953;51.222;6.624;2023-02-28T22:55:08;20.40;;;12.80;;
3875;SDS011;1953;51.222;6.624;2023-02-28T22:59:52;23.40;;;13.33;;
3875;SDS011;1953;51.222;6.624;2023-02-28T23:04:34;23.00;;;13.77;;
3875;SDS011;1953;51.222;6.624;2023-02-28T23:09:17;21.63;;;13.10;;
3875;SDS011;1953;51.222;6.624;2023-02-28T23:14:02;23.10;;;14.23;;
3875;SDS011;1953;51.222;6.624;2023-02-28T23:18:45;20.60;;;13.50;;
3875;SDS011;1953;51.222;6.624;2023-02-28T23:23:27;20.50;;;13.47;;
3875;SDS011;1953;51.222;6.624;2023-02-28T23:28:10;23.77;;;13.30;;
3875;SDS011;1953;51.222;6.624;2023-02-28T23:32:53;24.50;;;14.43;;
3875;SDS011;1953;51.222;6.624;2023-02-28T23:37:36;21.70;;;14.07;;
3875;SDS011;1953;51.222;6.624;2023-02-28T23:42:20;21.07;;;13.30;;
3875;SDS011;1953;51.222;6.624;2023-02-28T23:47:02;34.60;;;13.83;;
3875;SDS011;1953;51.222;6.624;2023-02-28T23:51:47;22.60;;;14.13;;
3875;SDS011;1953;51.222;6.624;2023-02-28T23:56:30;26.13;;;14.73;;
